Time;durP1;ratioP1;P1;durP2;ratioP2;P2;SDS_P1;SDS_P2;PMS_P1;PMS_P2;Temp;Humidity;BMP_temperature;BMP_pressure;BME280_temperature;BME280_humidity;BME280_pressure;Samples;Min_cycle;Max_cycle;Signal;HPM_P1;HPM_P2
2023/08/08 00:01:19;;;;;;;7.22;2.33;;;;;;;;;;6285655;22;20028;-88
2023/08/08 00:03:48;;;;;;;6.20;1.83;;;;;;;;;;6284913;22;20147;-88
2023/08/08 00:06:15;;;;;;;8.02;2.20;;;;;;;;;;6288278;22;20436;-89
2023/08/08 00:08:44;;;;;;;8.00;2.53;;;;;;;;;;6283891;22;20106;-89
2023/08/08 00:11:11;;;;;;;8.48;2.67;;;;;;;;;;6284113;22;20058;-89
2023/08/08 00:13:44;;;;;;;7.13;2.28;;;;;;;;;;6286400;22;20046;-89
2023/08/08 00:16:11;;;;;;;9.68;2.30;;;;;;;;;;6285308;22;20253;-89
2023/08/08 00:18:38;;;;;;;4.78;2.83;;;;;;;;;;6288490;22;20024;-89
2023/08/08 00:21:06;;;;;;;8.75;2.47;;;;;;;;;;6283351;22;20115;-89
2023/08/08 00:23:33;;;;;;;2.88;1.80;;;;;;;;;;6285395;22;20023;-89
2023/08/08 00:26:03;;;;;;;7.38;2.58;;;;;;;;;;6283993;22;20031;-89
2023/08/08 00:28:33;;;;;;;6.05;2.22;;;;;;;;;;6285753;22;20015;-89
2023/08/08 00:31:01;;;;;;;5.43;2.50;;;;;;;;;;6282570;22;20020;-89
2023/08/08 00:33:28;;;;;;;5.78;2.15;;;;;;;;;;6283896;22;20039;-89
2023/08/08 00:36:01;;;;;;;4.57;2.40;;;;;;;;;;6283938;22;20071;-89
2023/08/08 00:38:28;;;;;;;6.57;2.15;;;;;;;;;;6284837;22;20030;-89
2023/08/08 00:40:58;;;;;;;9.20;2.10;;;;;;;;;;6281866;22;20023;-89
2023/08/08 00:43:29;;;;;;;2.58;2.10;;;;;;;;;;6280573;22;20101;-89
2023/08/08 00:45:59;;;;;;;4.47;1.92;;;;;;;;;;6282368;22;20019;-89
2023/08/08 00:48:30;;;;;;;5.22;2.63;;;;;;;;;;6286132;22;20036;-88
2023/08/08 00:50:58;;;;;;;3.70;2.33;;;;;;;;;;6284771;22;20020;-88
2023/08/08 00:53:31;;;;;;;9.27;3.13;;;;;;;;;;6288663;22;20026;-89
2023/08/08 00:56:06;;;;;;;8.85;2.35;;;;;;;;;;6285400;22;20035;-88
2023/08/08 00:58:33;;;;;;;5.82;2.70;;;;;;;;;;6285775;22;20023;-88
2023/08/08 01:01:03;;;;;;;5.05;2.33;;;;;;;;;;6286135;22;20038;-88
2023/08/08 01:03:34;;;;;;;6.93;2.70;;;;;;;;;;6285939;22;20309;-88
2023/08/08 01:06:10;;;;;;;8.13;2.65;;;;;;;;;;6285109;22;20382;-88
2023/08/08 01:09:11;;;;;;;7.65;2.47;;;;;;;;;;6283840;22;20309;-88
2023/08/08 01:11:39;;;;;;;3.58;2.10;;;;;;;;;;6257239;22;20359;-88
2023/08/08 01:14:08;;;;;;;6.95;2.45;;;;;;;;;;6292037;22;20047;-88
2023/08/08 01:16:35;;;;;;;5.60;2.95;;;;;;;;;;6286754;22;20024;-88
2023/08/08 01:19:03;;;;;;;4.40;2.60;;;;;;;;;;6283052;22;20083;-89
2023/08/08 01:21:35;;;;;;;4.47;2.53;;;;;;;;;;6283121;22;20093;-88
2023/08/08 01:24:21;;;;;;;8.82;2.53;;;;;;;;;;6283530;22;20082;-88
2023/08/08 01:26:49;;;;;;;6.22;2.70;;;;;;;;;;6283861;22;20026;-88
2023/08/08 01:29:15;;;;;;;5.38;2.60;;;;;;;;;;6282322;22;20071;-88
2023/08/08 01:31:43;;;;;;;6.63;2.67;;;;;;;;;;6281669;22;20027;-88
2023/08/08 01:34:10;;;;;;;7.45;2.70;;;;;;;;;;6281501;22;20024;-88
2023/08/08 01:36:42;;;;;;;6.45;2.80;;;;;;;;;;6286037;22;20062;-88
2023/08/08 01:39:13;;;;;;;4.15;2.35;;;;;;;;;;6284477;22;20042;-88
2023/08/08 01:41:42;;;;;;;4.30;2.63;;;;;;;;;;6286785;22;20027;-88
2023/08/08 01:44:10;;;;;;;3.80;2.72;;;;;;;;;;6284542;22;20053;-89
2023/08/08 01:46:40;;;;;;;6.85;3.10;;;;;;;;;;6282496;22;20023;-88
2023/08/08 01:49:08;;;;;;;7.35;3.17;;;;;;;;;;6285054;22;20054;-89
2023/08/08 01:51:35;;;;;;;12.55;3.20;;;;;;;;;;6282440;22;20064;-88
2023/08/08 01:54:04;;;;;;;11.38;2.83;;;;;;;;;;6283879;22;20019;-88
2023/08/08 01:56:31;;;;;;;5.57;2.95;;;;;;;;;;6281998;22;20073;-88
2023/08/08 01:58:58;;;;;;;4.72;2.95;;;;;;;;;;6282749;22;20024;-89
2023/08/08 02:01:26;;;;;;;6.80;2.58;;;;;;;;;;6284794;22;20028;-88
2023/08/08 02:03:53;;;;;;;7.95;2.97;;;;;;;;;;6286949;22;20089;-88
2023/08/08 02:06:21;;;;;;;8.68;3.05;;;;;;;;;;6285417;22;20079;-88
2023/08/08 02:08:50;;;;;;;12.15;2.85;;;;;;;;;;6286467;22;20015;-88
2023/08/08 02:11:17;;;;;;;7.60;3.40;;;;;;;;;;6283232;22;20024;-89
2023/08/08 02:13:46;;;;;;;5.97;2.70;;;;;;;;;;6286924;22;20039;-88
2023/08/08 02:16:16;;;;;;;7.82;2.97;;;;;;;;;;6285990;22;20088;-88
2023/08/08 02:18:43;;;;;;;6.28;2.55;;;;;;;;;;6286974;22;20077;-88
2023/08/08 02:21:14;;;;;;;7.28;3.20;;;;;;;;;;6285902;22;20023;-88
2023/08/08 02:23:42;;;;;;;10.82;3.53;;;;;;;;;;6299788;22;20028;-88
2023/08/08 02:26:09;;;;;;;7.25;2.70;;;;;;;;;;6290298;22;20027;-89
2023/08/08 02:28:35;;;;;;;7.22;3.42;;;;;;;;;;6285271;22;20039;-88
2023/08/08 02:31:03;;;;;;;8.82;3.00;;;;;;;;;;6284964;22;20076;-88
2023/08/08 02:33:29;;;;;;;12.88;3.20;;;;;;;;;;6291607;22;20071;-88
2023/08/08 02:35:56;;;;;;;9.43;3.30;;;;;;;;;;6286453;22;20093;-89
2023/08/08 02:38:23;;;;;;;6.68;3.65;;;;;;;;;;6285103;22;20024;-88
2023/08/08 02:40:50;;;;;;;8.18;3.15;;;;;;;;;;6301995;22;20016;-86
2023/08/08 02:43:24;;;;;;;7.32;3.42;;;;;;;;;;6305401;22;20008;-89
2023/08/08 02:45:55;;;;;;;7.80;3.38;;;;;;;;;;6288405;22;20023;-87
2023/08/08 02:48:26;;;;;;;7.53;3.72;;;;;;;;;;6285165;22;20083;-87
2023/08/08 02:50:53;;;;;;;8.38;3.60;;;;;;;;;;6283853;22;20024;-87
2023/08/08 02:53:21;;;;;;;9.43;3.40;;;;;;;;;;6284734;22;20031;-87
2023/08/08 02:55:48;;;;;;;8.55;3.83;;;;;;;;;;6284422;22;20046;-87
2023/08/08 02:58:14;;;;;;;4.38;2.85;;;;;;;;;;6284709;22;20069;-87
2023/08/08 03:00:42;;;;;;;8.88;4.65;;;;;;;;;;6289985;22;20023;-87
2023/08/08 03:03:08;;;;;;;8.93;3.88;;;;;;;;;;6286289;22;20035;-87
2023/08/08 03:05:36;;;;;;;5.75;3.95;;;;;;;;;;6284149;22;20027;-87
2023/08/08 03:08:05;;;;;;;7.65;4.03;;;;;;;;;;6283181;22;20234;-87
2023/08/08 03:10:32;;;;;;;9.35;3.60;;;;;;;;;;6283032;22;20078;-87
2023/08/08 03:12:59;;;;;;;5.72;4.43;;;;;;;;;;6282197;22;20024;-87
2023/08/08 03:15:26;;;;;;;5.00;3.35;;;;;;;;;;6283760;22;20023;-87
2023/08/08 03:17:56;;;;;;;6.35;3.38;;;;;;;;;;6281949;22;20054;-87
2023/08/08 03:20:26;;;;;;;7.97;4.80;;;;;;;;;;6281160;22;20020;-87
2023/08/08 03:23:07;;;;;;;5.90;3.72;;;;;;;;;;6300557;22;20011;-88
2023/08/08 03:26:14;;;;;;;3.95;3.05;;;;;;;;;;6300366;22;20094;-85
2023/08/08 03:28:59;;;;;;;12.00;4.45;;;;;;;;;;6298656;22;20071;-87
2023/08/08 03:31:50;;;;;;;12.38;3.65;;;;;;;;;;6302776;22;20039;-87
2023/08/08 03:34:31;;;;;;;12.73;3.33;;;;;;;;;;6300902;22;20026;-88
2023/08/08 03:37:15;;;;;;;12.00;4.10;;;;;;;;;;6301369;22;20022;-88
2023/08/08 03:39:59;;;;;;;6.30;3.58;;;;;;;;;;6301344;22;20033;-86
2023/08/08 03:57:37;;;;;;;7.43;3.72;;;;;;;;;;6291553;22;20008;-86
2023/08/08 04:00:27;;;;;;;10.68;3.67;;;;;;;;;;6256425;22;20035;-87
2023/08/08 04:03:12;;;;;;;8.23;4.20;;;;;;;;;;6277557;22;20027;-86
2023/08/08 04:09:35;;;;;;;8.65;4.03;;;;;;;;;;6299834;22;20023;-86
2023/08/08 04:12:20;;;;;;;4.90;3.15;;;;;;;;;;6275535;22;20015;-86
2023/08/08 04:15:07;;;;;;;8.63;4.53;;;;;;;;;;6275672;22;20038;-87
2023/08/08 04:18:08;;;;;;;6.28;4.13;;;;;;;;;;6274896;22;20428;-87
2023/08/08 04:21:12;;;;;;;14.07;5.03;;;;;;;;;;6266579;22;20024;-86
2023/08/08 04:24:00;;;;;;;8.65;4.10;;;;;;;;;;6300211;22;20015;-86
2023/08/08 04:26:47;;;;;;;10.57;4.05;;;;;;;;;;6275855;22;20003;-87
2023/08/08 04:33:00;;;;;;;8.40;4.20;;;;;;;;;;6301556;22;20042;-87
2023/08/08 04:35:54;;;;;;;6.95;3.50;;;;;;;;;;6278668;22;20099;-87
2023/08/08 04:38:39;;;;;;;10.98;4.65;;;;;;;;;;6275347;22;20129;-87
2023/08/08 04:41:39;;;;;;;9.30;4.30;;;;;;;;;;6275158;22;20083;-87
2023/08/08 05:00:18;;;;;;;6.43;3.60;;;;;;;;;;6294321;22;20016;-88
2023/08/08 05:03:29;;;;;;;;;;;;;;;;;;;;;
2023/08/08 05:09:48;;;;;;;6.40;3.15;;;;;;;;;;6292666;22;20039;-88
2023/08/08 05:12:39;;;;;;;6.88;2.92;;;;;;;;;;6274105;22;20020;-87
2023/08/08 05:15:43;;;;;;;9.80;3.20;;;;;;;;;;6298924;22;20014;-87
2023/08/08 05:48:00;;;;;;;15.27;3.25;;;;;;;;;;6245236;22;20228;-86
2023/08/08 05:51:07;;;;;;;8.60;3.28;;;;;;;;;;6237092;23;20025;-87
2023/08/08 05:54:00;;;;;;;6.60;2.55;;;;;;;;;;6207820;23;20005;-87
2023/08/08 05:59:39;;;;;;;8.52;2.80;;;;;;;;;;6278848;22;20196;-88
2023/08/08 06:05:52;;;;;;;8.48;2.22;;;;;;;;;;6299869;22;20011;-88
2023/08/08 06:08:59;;;;;;;8.32;2.30;;;;;;;;;;6277766;22;20015;-88
2023/08/08 06:15:08;;;;;;;9.05;2.75;;;;;;;;;;6292312;22;20059;-88
2023/08/08 06:18:17;;;;;;;6.18;2.20;;;;;;;;;;6259198;22;20019;-87
2023/08/08 06:21:50;;;;;;;10.02;2.72;;;;;;;;;;6297054;22;20050;-88
2023/08/08 06:27:07;;;;;;;4.82;2.10;;;;;;;;;;6298197;22;20084;-87
2023/08/08 06:29:49;;;;;;;6.85;2.60;;;;;;;;;;6273108;22;20030;-87
2023/08/08 06:32:34;;;;;;;6.75;2.47;;;;;;;;;;6274873;22;20003;-87
2023/08/08 09:46:57;;;;;;;5.25;0.55;;;;;;;;;;6237222;22;20008;-87
2023/08/08 12:29:14;;;;;;;3.50;0.82;;;;;;;;;;6272215;22;20038;-89
2023/08/08 12:32:55;;;;;;;;;;;;;;;;;;;;;
2023/08/08 12:46:21;;;;;;;4.07;0.55;;;;;;;;;;6272491;22;20067;-90
2023/08/08 13:06:15;;;;;;;3.40;0.90;;;;;;;;;;6253461;22;20011;-87
2023/08/08 13:09:06;;;;;;;4.18;1.90;;;;;;;;;;6278002;22;20019;-90
2023/08/08 13:20:43;;;;;;;2.40;0.57;;;;;;;;;;6269132;22;20003;-91
2023/08/08 13:26:38;;;;;;;2.83;0.60;;;;;;;;;;6265980;22;20019;-90
2023/08/08 13:29:51;;;;;;;3.15;0.40;;;;;;;;;;6255047;22;20061;-89
2023/08/08 13:32:54;;;;;;;7.13;1.00;;;;;;;;;;6186031;23;20005;-90
2023/08/08 13:46:14;;;;;;;7.03;1.03;;;;;;;;;;6266261;22;20439;-89
2023/08/08 14:03:38;;;;;;;2.97;0.60;;;;;;;;;;6246262;22;20008;-88
2023/08/08 14:18:11;;;;;;;3.00;0.90;;;;;;;;;;6268966;22;20028;-90
2023/08/08 14:30:15;;;;;;;3.55;0.82;;;;;;;;;;6266350;22;20000;-89
2023/08/08 14:54:10;;;;;;;9.53;0.97;;;;;;;;;;6270108;22;20008;-89
2023/08/08 15:00:06;;;;;;;5.13;0.60;;;;;;;;;;6260457;22;20069;-91
2023/08/08 15:05:25;;;;;;;12.30;1.57;;;;;;;;;;6290587;22;20045;-91
2023/08/08 15:08:09;;;;;;;7.43;0.90;;;;;;;;;;6278356;22;20403;-90
2023/08/08 15:11:17;;;;;;;1.75;0.73;;;;;;;;;;6278646;22;20046;-90
2023/08/08 15:27:34;;;;;;;2.70;0.40;;;;;;;;;;6255097;22;20018;-91
2023/08/08 15:30:43;;;;;;;3.63;1.17;;;;;;;;;;6264280;22;20038;-90
2023/08/08 15:33:38;;;;;;;6.35;1.00;;;;;;;;;;6274709;22;20030;-90
2023/08/08 15:39:18;;;;;;;;;;;;;;;;;;;;;
2023/08/08 15:47:39;;;;;;;4.15;0.63;;;;;;;;;;6294954;22;21091;-90
2023/08/08 15:53:55;;;;;;;2.95;0.90;;;;;;;;;;6268103;22;20010;-88
2023/08/08 16:38:32;;;;;;;8.85;1.00;;;;;;;;;;6257633;22;20027;-89
2023/08/08 17:55:18;;;;;;;3.60;0.90;;;;;;;;;;6260348;22;20008;-91
2023/08/08 17:58:45;;;;;;;4.85;0.80;;;;;;;;;;6210833;23;20036;-90
2023/08/08 18:46:00;;;;;;;5.55;1.08;;;;;;;;;;6231974;22;20005;-89
2023/08/08 18:49:00;;;;;;;3.65;0.85;;;;;;;;;;6262727;22;20016;-88
2023/08/08 19:16:08;;;;;;;3.35;0.80;;;;;;;;;;6270843;22;20012;-88
2023/08/08 19:55:44;;;;;;;4.72;1.00;;;;;;;;;;6267859;22;20027;-89
2023/08/08 20:01:41;;;;;;;8.15;1.00;;;;;;;;;;6286141;22;19999;-89
2023/08/08 20:10:19;;;;;;;3.13;1.17;;;;;;;;;;6240086;22;20028;-88
2023/08/08 20:15:41;;;;;;;6.90;1.75;;;;;;;;;;6277963;22;20000;-89
2023/08/08 20:18:49;;;;;;;3.78;1.23;;;;;;;;;;6279850;22;20024;-89
2023/08/08 20:21:55;;;;;;;8.55;0.88;;;;;;;;;;6288194;22;20050;-88
2023/08/08 20:24:53;;;;;;;2.58;0.80;;;;;;;;;;6297408;22;20028;-87
2023/08/08 20:28:09;;;;;;;8.30;1.00;;;;;;;;;;6255182;22;20049;-89
2023/08/08 20:31:24;;;;;;;4.45;0.98;;;;;;;;;;6284573;22;20105;-88
2023/08/08 20:34:12;;;;;;;6.68;0.93;;;;;;;;;;6275539;22;20067;-88
2023/08/08 20:36:55;;;;;;;5.47;0.90;;;;;;;;;;6275474;22;20015;-88
2023/08/08 20:39:51;;;;;;;3.08;1.02;;;;;;;;;;6277495;22;20012;-88
2023/08/08 20:45:34;;;;;;;4.75;0.95;;;;;;;;;;6246610;22;20012;-87
2023/08/08 20:48:19;;;;;;;7.22;1.30;;;;;;;;;;6267342;22;20193;-87
2023/08/08 20:54:28;;;;;;;6.28;0.82;;;;;;;;;;6267749;22;20031;-88
2023/08/08 21:00:08;;;;;;;3.50;0.70;;;;;;;;;;6272674;22;20067;-90
2023/08/08 21:03:12;;;;;;;3.10;0.73;;;;;;;;;;6248098;22;20036;-90
2023/08/08 21:05:56;;;;;;;6.63;0.95;;;;;;;;;;6270198;22;20019;-89
2023/08/08 21:08:27;;;;;;;3.15;0.65;;;;;;;;;;6246721;22;20071;-90
2023/08/08 21:14:50;;;;;;;5.68;0.50;;;;;;;;;;6272984;22;20027;-87
2023/08/08 21:17:42;;;;;;;4.57;0.70;;;;;;;;;;6246953;22;20023;-89
2023/08/08 21:20:54;;;;;;;5.38;1.05;;;;;;;;;;6269679;22;20004;-90
2023/08/08 21:24:07;;;;;;;4.90;0.88;;;;;;;;;;6248423;22;20057;-89
2023/08/08 21:27:01;;;;;;;3.03;0.90;;;;;;;;;;6261977;22;20022;-88
2023/08/08 21:29:54;;;;;;;3.10;0.80;;;;;;;;;;6246472;22;20053;-88
2023/08/08 21:32:51;;;;;;;5.90;1.10;;;;;;;;;;6260648;22;20033;-87
2023/08/08 21:38:34;;;;;;;4.18;0.90;;;;;;;;;;6271896;22;20096;-87
2023/08/08 21:47:11;;;;;;;3.40;0.90;;;;;;;;;;6215010;22;19930;-89
2023/08/08 21:52:32;;;;;;;6.22;1.00;;;;;;;;;;6269963;22;20008;-87
2023/08/08 21:55:36;;;;;;;4.07;1.45;;;;;;;;;;6265412;22;20035;-88
2023/08/08 21:58:27;;;;;;;4.10;0.82;;;;;;;;;;6278214;22;20044;-90
2023/08/08 22:01:20;;;;;;;2.47;0.77;;;;;;;;;;6278684;22;20034;-88
2023/08/08 22:04:27;;;;;;;2.47;0.77;;;;;;;;;;6278078;22;20015;-88
2023/08/08 22:07:09;;;;;;;3.33;1.40;;;;;;;;;;6274368;22;19999;-89
2023/08/08 22:10:08;;;;;;;4.28;1.13;;;;;;;;;;6274870;22;20012;-90
2023/08/08 22:13:01;;;;;;;3.67;0.75;;;;;;;;;;6299319;22;20015;-88
2023/08/08 22:16:04;;;;;;;1.23;0.60;;;;;;;;;;6300414;22;20031;-88
2023/08/08 22:19:08;;;;;;;3.75;0.88;;;;;;;;;;6300315;22;20187;-87
2023/08/08 22:21:53;;;;;;;4.05;1.05;;;;;;;;;;6276901;22;20018;-88
2023/08/08 22:24:49;;;;;;;1.63;0.60;;;;;;;;;;6278465;22;20059;-88
2023/08/08 22:27:37;;;;;;;4.07;0.70;;;;;;;;;;6278380;22;20016;-87
2023/08/08 22:30:29;;;;;;;5.60;0.70;;;;;;;;;;6275492;22;20039;-89
2023/08/08 22:33:28;;;;;;;;;;;;;;;;;;;;;
2023/08/08 22:36:07;;;;;;;9.40;0.95;;;;;;;;;;6270151;22;20024;-87
2023/08/08 22:38:47;;;;;;;5.57;0.93;;;;;;;;;;6245634;23;20103;-86
2023/08/08 22:41:39;;;;;;;4.28;1.20;;;;;;;;;;6243364;23;20129;-88
2023/08/08 22:44:19;;;;;;;5.55;0.85;;;;;;;;;;6236672;23;20016;-87
2023/08/08 22:46:47;;;;;;;2.95;0.90;;;;;;;;;;6232907;23;20043;-88
2023/08/08 22:49:14;;;;;;;5.28;1.15;;;;;;;;;;6233550;23;20024;-86
2023/08/08 22:51:41;;;;;;;4.68;1.30;;;;;;;;;;6232813;23;20036;-87
2023/08/08 22:54:08;;;;;;;4.35;1.20;;;;;;;;;;6234701;23;20082;-87
2023/08/08 22:56:36;;;;;;;4.60;1.00;;;;;;;;;;6227037;23;20035;-87
2023/08/08 22:59:04;;;;;;;7.38;1.20;;;;;;;;;;6254037;23;20024;-87
2023/08/08 23:01:31;;;;;;;6.15;1.38;;;;;;;;;;6227163;23;20028;-87
2023/08/08 23:03:58;;;;;;;1.92;1.17;;;;;;;;;;6223853;23;20115;-87
2023/08/08 23:06:26;;;;;;;3.08;1.10;;;;;;;;;;6252420;23;20286;-87
2023/08/08 23:08:54;;;;;;;4.40;1.20;;;;;;;;;;6226216;23;20024;-87
2023/08/08 23:11:21;;;;;;;3.38;1.15;;;;;;;;;;6225532;23;20016;-87
2023/08/08 23:13:50;;;;;;;4.05;1.20;;;;;;;;;;6262317;22;20036;-87
2023/08/08 23:16:31;;;;;;;4.72;1.55;;;;;;;;;;6242528;23;20072;-87
2023/08/08 23:19:14;;;;;;;10.95;1.50;;;;;;;;;;6242499;23;20107;-87
2023/08/08 23:21:55;;;;;;;8.10;1.27;;;;;;;;;;6232008;23;20325;-87
2023/08/08 23:24:22;;;;;;;5.25;1.10;;;;;;;;;;6261266;23;20012;-87
2023/08/08 23:26:53;;;;;;;11.57;1.33;;;;;;;;;;6226644;23;20095;-87
2023/08/08 23:29:19;;;;;;;2.63;0.90;;;;;;;;;;6226625;23;20040;-87
2023/08/08 23:31:47;;;;;;;3.05;1.13;;;;;;;;;;6227164;23;20044;-87
2023/08/08 23:34:14;;;;;;;4.35;1.17;;;;;;;;;;6226354;23;20055;-87
2023/08/08 23:36:41;;;;;;;5.60;1.20;;;;;;;;;;6252888;22;20040;-87
2023/08/08 23:39:10;;;;;;;6.13;1.13;;;;;;;;;;6227778;23;20028;-86
2023/08/08 23:41:37;;;;;;;3.03;1.13;;;;;;;;;;6228186;22;20474;-87
2023/08/08 23:44:04;;;;;;;6.55;1.33;;;;;;;;;;6227754;23;20028;-87
2023/08/08 23:46:31;;;;;;;4.57;0.90;;;;;;;;;;6228732;23;20124;-87
2023/08/08 23:48:58;;;;;;;2.08;1.27;;;;;;;;;;6229177;23;20206;-87
2023/08/08 23:51:25;;;;;;;2.88;1.10;;;;;;;;;;6253714;23;20024;-87
2023/08/08 23:53:55;;;;;;;3.13;1.10;;;;;;;;;;6231946;23;20047;-87
2023/08/08 23:56:24;;;;;;;4.63;1.55;;;;;;;;;;6229909;23;20030;-87
2023/08/08 23:58:52;;;;;;;5.70;1.40;;;;;;;;;;6226210;23;20024;-87
